Accueil
METAR-TAF:

METAR-TAF

Aéroports :

Koweït, Koweït

Aéroport international de Koweït

latitude: 29-13N, longitude: 047-59E, altitude: 55 m

Observation

Le bulletin a été fait il y a 1 heure et 3 minutes, à 03:00 UTC
Vent calme
Température 17°C
Humidité 63%
Pression 1013 hPa
Visibilité 10 km ou plus
pas de nuages en-dessous de 1500 mètres et pas de cumulonimbus.

METAR: OKBK 240300Z 00000KT CAVOK 17/10 Q1013 NOSIG

Heure: 07:03 (04:03 UTC)

Prévision

Le bulletin a été fait il y a 5 heures et 9 minutes, à 22:54 UTC
Prévision valable du 24 à 00 UTC au 25 à 06 UTC
Vent 8 kt de sud/sud-est
Visibilité: 6000 m
Temporairement
du 24 à 00 UTC au 24 à 04 UTC
Vent 3 kt de direction variable
Visibilité: 3000 m
brume sèche

TAF: OKBK 232254Z 2400/2506 16008KT 6000 NSC TEMPO 2400/2404 VRB03KT 3000 HZ

Observations et prévisions météorologiques de plus de 4000 aéroports (messages METAR et TAF).

Les stations disponibles sont représentées par des disques jaunes et rouges sur la carte.

Passer la souris dessus pour voir le nom de la station.

Cliquer dessus pour voir les observations et prévisions météorologiques.

Pour changer de carte: cliquez sur les boutons verts avec une croix noire pour zoomer, sur le bouton vert avec un tiret pour effectuer un zoom arrière, ou sur les flèches vertes pour les cartes adjacentes.


METAR-TAF: